createdAt,value
2017-11-24T00:00:42.352Z,8.20
2017-11-24T00:03:11.541Z,8.30
2017-11-24T00:05:40.706Z,8.30
2017-11-24T00:08:09.845Z,8.20
2017-11-24T00:10:38.937Z,8.30
2017-11-24T00:13:08.036Z,8.20
2017-11-24T00:15:37.276Z,8.20
2017-11-24T00:18:07.203Z,8.20
2017-11-24T00:20:36.353Z,8.20
2017-11-24T00:23:05.734Z,8.20
2017-11-24T00:25:36.288Z,8.20
2017-11-24T00:28:05.401Z,8.10
2017-11-24T00:30:35.621Z,8.10
2017-11-24T00:33:06.494Z,8.10
2017-11-24T00:35:35.613Z,8.10
2017-11-24T00:38:04.981Z,8.10
2017-11-24T00:40:34.111Z,8.10
2017-11-24T00:43:03.980Z,8.00
2017-11-24T00:45:33.109Z,8.00
2017-11-24T00:48:02.392Z,8.00
2017-11-24T00:50:31.488Z,8.00
2017-11-24T00:53:00.909Z,7.90
2017-11-24T00:55:30.047Z,7.90
2017-11-24T00:57:59.268Z,7.90
2017-11-24T01:00:29.248Z,7.90
2017-11-24T01:02:58.352Z,7.90
2017-11-24T01:05:27.511Z,7.80
2017-11-24T01:07:57.165Z,7.80
2017-11-24T01:10:26.283Z,7.80
2017-11-24T01:12:56.333Z,7.80
2017-11-24T01:15:26.305Z,7.80
2017-11-24T01:17:55.492Z,7.90
2017-11-24T01:20:24.642Z,7.90
2017-11-24T01:22:55.562Z,7.90
2017-11-24T01:25:24.875Z,7.90
2017-11-24T01:27:54.227Z,7.90
2017-11-24T01:30:24.376Z,7.90
2017-11-24T01:32:53.539Z,7.80
2017-11-24T01:35:22.694Z,7.80
2017-11-24T01:37:52.724Z,7.70
2017-11-24T01:40:22.003Z,7.70
2017-11-24T01:42:51.952Z,7.80
2017-11-24T01:45:21.969Z,7.70
2017-11-24T01:47:51.864Z,7.70
2017-11-24T01:50:21.061Z,7.80
2017-11-24T01:52:50.997Z,7.80
2017-11-24T01:55:20.163Z,7.80
2017-11-24T01:57:50.103Z,7.80
2017-11-24T02:00:21.257Z,7.80
2017-11-24T02:02:50.620Z,7.80
2017-11-24T02:05:19.741Z,7.80
2017-11-24T02:07:48.988Z,7.70
2017-11-24T02:10:19.207Z,7.70
2017-11-24T02:12:48.347Z,7.70
2017-11-24T02:15:18.914Z,7.60
2017-11-24T02:17:47.996Z,7.60
2017-11-24T02:20:17.269Z,7.60
2017-11-24T02:22:47.437Z,7.50
2017-11-24T02:25:16.680Z,7.50
2017-11-24T02:27:45.819Z,7.60
2017-11-24T02:30:15.309Z,7.60
2017-11-24T02:32:44.595Z,7.60
2017-11-24T02:35:13.713Z,7.60
2017-11-24T02:37:42.889Z,7.60
2017-11-24T02:40:12.810Z,7.70
2017-11-24T02:42:42.707Z,7.70
2017-11-24T02:45:12.017Z,7.70
2017-11-24T02:47:41.218Z,7.80
2017-11-24T02:50:10.522Z,7.80
2017-11-24T02:52:40.965Z,7.80
2017-11-24T02:55:10.230Z,7.90
2017-11-24T02:57:39.353Z,7.90
2017-11-24T03:00:09.316Z,7.90
2017-11-24T03:02:38.443Z,7.90
2017-11-24T03:05:07.556Z,7.90
2017-11-24T03:07:36.992Z,7.80
2017-11-24T03:10:06.200Z,7.80
2017-11-24T03:12:35.311Z,7.90
2017-11-24T03:15:04.613Z,7.80
2017-11-24T03:17:33.743Z,7.80
2017-11-24T03:20:03.541Z,7.80
2017-11-24T03:22:32.741Z,7.80
2017-11-24T03:25:01.954Z,7.80
2017-11-24T03:27:31.085Z,7.90
2017-11-24T03:30:00.394Z,7.90
2017-11-24T03:32:29.516Z,7.90
2017-11-24T03:34:58.620Z,7.90
2017-11-24T03:37:28.730Z,7.90
2017-11-24T03:39:57.966Z,7.90
2017-11-24T03:42:27.239Z,7.80
2017-11-24T03:44:57.384Z,7.80
2017-11-24T03:47:26.695Z,7.80
2017-11-24T03:49:55.792Z,7.80
2017-11-24T03:52:24.974Z,7.80
2017-11-24T03:54:54.142Z,7.80
2017-11-24T03:57:24.158Z,7.80
2017-11-24T03:59:54.020Z,7.80
2017-11-24T04:02:23.222Z,7.80
2017-11-24T04:04:52.421Z,7.80
2017-11-24T04:07:21.733Z,7.80
2017-11-24T04:09:50.965Z,7.80
2017-11-24T04:12:20.215Z,7.80
2017-11-24T04:14:50.029Z,7.80
2017-11-24T04:17:19.548Z,7.80
2017-11-24T04:19:48.724Z,7.80
2017-11-24T04:22:17.969Z,7.80
2017-11-24T04:24:47.107Z,7.90
2017-11-24T04:27:16.281Z,7.90
2017-11-24T04:29:45.477Z,7.90
2017-11-24T04:32:14.566Z,7.90
2017-11-24T04:34:43.660Z,7.90
2017-11-24T04:37:13.620Z,7.90
2017-11-24T04:39:43.588Z,8.00
2017-11-24T04:42:13.172Z,7.90
2017-11-24T04:44:43.659Z,7.90
2017-11-24T04:47:12.870Z,7.90
2017-11-24T04:49:42.071Z,7.90
2017-11-24T04:52:12.046Z,7.90
2017-11-24T04:54:41.268Z,7.90
2017-11-24T04:57:10.394Z,7.80
2017-11-24T04:59:39.594Z,7.80
2017-11-24T05:02:09.461Z,7.90
2017-11-24T05:04:39.008Z,7.90
2017-11-24T05:07:10.158Z,7.90
2017-11-24T05:09:39.303Z,7.90
2017-11-24T05:12:08.399Z,7.90
2017-11-24T05:14:37.649Z,8.00
2017-11-24T05:17:06.743Z,8.00
2017-11-24T05:19:36.654Z,8.00
2017-11-24T05:22:05.806Z,8.00
2017-11-24T05:24:34.939Z,8.00
2017-11-24T05:27:04.049Z,8.00
2017-11-24T05:29:33.193Z,8.00
2017-11-24T05:32:02.289Z,7.90
2017-11-24T05:34:31.418Z,8.00
2017-11-24T05:37:02.195Z,7.90
2017-11-24T05:39:31.315Z,7.90
2017-11-24T05:42:00.556Z,7.90
2017-11-24T05:44:29.811Z,7.90
2017-11-24T05:46:59.702Z,7.90
2017-11-24T05:49:29.709Z,7.80
2017-11-24T05:51:59.627Z,7.90
2017-11-24T05:54:28.796Z,7.90
2017-11-24T05:56:58.722Z,7.90
2017-11-24T05:59:29.236Z,7.90
2017-11-24T06:01:58.370Z,7.80
2017-11-24T06:04:28.560Z,7.90
2017-11-24T06:06:57.861Z,7.90
2017-11-24T06:09:27.083Z,7.90
2017-11-24T06:11:56.180Z,8.00
2017-11-24T06:14:25.615Z,8.00
2017-11-24T06:16:54.731Z,8.00
2017-11-24T06:19:23.931Z,8.00
2017-11-24T06:21:53.126Z,8.00
2017-11-24T06:24:22.325Z,8.00
2017-11-24T06:26:51.623Z,7.90
2017-11-24T06:29:21.071Z,7.80
2017-11-24T06:31:50.172Z,7.80
2017-11-24T06:34:19.275Z,7.80
2017-11-24T06:36:49.088Z,7.80
2017-11-24T06:39:18.220Z,7.80
2017-11-24T06:41:47.320Z,7.80
2017-11-24T06:44:17.116Z,7.80
2017-11-24T06:46:47.043Z,7.80
2017-11-24T06:49:16.978Z,7.80
2017-11-24T06:51:46.715Z,7.80
2017-11-24T06:54:15.876Z,7.80
2017-11-24T06:56:44.964Z,7.90
2017-11-24T06:59:14.879Z,7.90
2017-11-24T07:01:43.972Z,7.90
2017-11-24T07:04:13.842Z,8.00
2017-11-24T07:06:44.735Z,8.00
2017-11-24T07:09:13.955Z,8.10
2017-11-24T07:11:43.172Z,8.10
2017-11-24T07:14:13.866Z,8.10
2017-11-24T07:16:43.060Z,8.10
2017-11-24T07:19:12.192Z,8.10
2017-11-24T07:21:41.595Z,8.10
2017-11-24T07:24:11.374Z,8.10
2017-11-24T07:26:40.604Z,8.10
2017-11-24T07:29:09.769Z,8.10
2017-11-24T07:31:39.642Z,8.10
2017-11-24T07:34:08.777Z,8.10
2017-11-24T07:36:39.514Z,8.10
2017-11-24T07:39:08.651Z,8.10
2017-11-24T07:41:37.748Z,8.00
2017-11-24T07:44:08.527Z,8.00
2017-11-24T07:46:38.419Z,8.00
2017-11-24T07:49:07.543Z,8.00
2017-11-24T07:51:37.520Z,8.00
2017-11-24T07:54:06.717Z,8.00
2017-11-24T07:56:35.890Z,8.00
2017-11-24T07:59:05.093Z,8.10
2017-11-24T08:01:35.068Z,8.10
2017-11-24T08:04:04.226Z,8.10
2017-11-24T08:06:33.413Z,8.10
2017-11-24T08:09:03.628Z,8.10
2017-11-24T08:11:33.061Z,8.10
2017-11-24T08:14:03.532Z,8.00
2017-11-24T08:16:33.448Z,8.10
2017-11-24T08:19:03.498Z,8.10
2017-11-24T08:21:32.710Z,8.10
2017-11-24T08:24:02.676Z,8.10
2017-11-24T08:26:32.116Z,8.10
2017-11-24T08:29:01.483Z,8.10
2017-11-24T08:31:30.898Z,8.20
2017-11-24T08:34:00.138Z,8.20
2017-11-24T08:36:29.496Z,8.20
2017-11-24T08:38:58.738Z,8.20
2017-11-24T08:41:28.771Z,8.20
2017-11-24T08:43:58.060Z,8.20
2017-11-24T08:49:51.596Z,8.30
2017-11-24T08:52:21.486Z,8.20
2017-11-24T08:54:51.685Z,8.10
2017-11-24T08:57:20.882Z,8.20
2017-11-24T08:59:50.085Z,8.20
2017-11-24T09:02:19.228Z,8.20
2017-11-24T09:04:48.500Z,8.20
2017-11-24T09:07:17.625Z,8.20
2017-11-24T09:09:47.579Z,8.20
2017-11-24T09:12:16.702Z,8.20
2017-11-24T09:14:45.833Z,8.20
2017-11-24T09:17:16.207Z,8.20
2017-11-24T09:19:45.397Z,8.20
2017-11-24T09:22:14.556Z,8.20
2017-11-24T09:24:43.722Z,8.20
2017-11-24T09:27:12.895Z,8.20
2017-11-24T09:29:42.009Z,8.20
2017-11-24T09:32:12.576Z,8.20
2017-11-24T09:34:41.773Z,8.20
2017-11-24T09:37:10.929Z,8.30
2017-11-24T09:39:40.642Z,8.30
2017-11-24T09:42:09.732Z,8.30
2017-11-24T09:44:39.649Z,8.20
2017-11-24T09:47:08.843Z,8.20
2017-11-24T09:49:37.938Z,8.30
2017-11-24T09:52:07.122Z,8.30
2017-11-24T09:54:36.279Z,8.40
2017-11-24T09:57:05.449Z,8.40
2017-11-24T09:59:34.610Z,8.50
2017-11-24T10:02:04.649Z,8.50
2017-11-24T10:04:34.593Z,8.60
2017-11-24T10:07:04.505Z,8.70
2017-11-24T10:09:36.416Z,8.70
2017-11-24T10:12:06.467Z,8.70
2017-11-24T10:14:35.585Z,8.80
2017-11-24T10:17:04.818Z,8.80
2017-11-24T10:19:33.950Z,8.80
2017-11-24T10:22:09.490Z,9.00
2017-11-24T10:24:38.796Z,9.00
2017-11-24T10:27:07.900Z,9.00
2017-11-24T10:29:37.172Z,8.90
2017-11-24T10:32:06.275Z,9.00
2017-11-24T10:34:35.413Z,9.00
2017-11-24T10:37:04.590Z,9.00
2017-11-24T10:39:33.891Z,9.00
2017-11-24T10:42:03.183Z,9.00
2017-11-24T10:44:34.235Z,9.00
2017-11-24T10:47:04.156Z,9.00
2017-11-24T10:49:34.058Z,9.00
2017-11-24T10:52:03.704Z,9.00
2017-11-24T10:54:32.867Z,9.20
2017-11-24T10:57:01.959Z,9.20
2017-11-24T10:59:32.007Z,9.30
2017-11-24T11:02:01.182Z,9.20
2017-11-24T11:04:31.109Z,9.10
2017-11-24T11:07:00.403Z,9.10
2017-11-24T11:09:29.737Z,9.10
2017-11-24T11:11:59.002Z,9.10
2017-11-24T11:14:28.304Z,9.20
2017-11-24T11:16:57.501Z,9.30
2017-11-24T11:19:27.515Z,9.30
2017-11-24T11:21:57.528Z,9.30
2017-11-24T11:24:27.578Z,9.40
2017-11-24T11:26:56.880Z,9.40
2017-11-24T11:29:26.376Z,9.40
2017-11-24T11:31:56.482Z,9.20
2017-11-24T11:34:25.773Z,9.20
2017-11-24T11:36:55.183Z,9.20
2017-11-24T11:39:24.716Z,9.10
2017-11-24T11:41:54.202Z,9.10
2017-11-24T11:44:23.803Z,9.10
2017-11-24T11:46:53.200Z,9.00
2017-11-24T11:49:22.585Z,9.00
2017-11-24T11:51:52.299Z,9.10
2017-11-24T11:54:21.458Z,9.10
2017-11-24T11:56:51.424Z,9.10
2017-11-24T11:59:20.624Z,8.90
2017-11-24T12:01:49.838Z,8.90
2017-11-24T12:04:19.011Z,8.90
2017-11-24T12:06:49.138Z,8.90
2017-11-24T12:09:19.053Z,8.80
2017-11-24T12:11:48.193Z,8.80
2017-11-24T12:14:18.427Z,8.70
2017-11-24T12:16:47.558Z,8.70
2017-11-24T12:19:16.689Z,8.70
2017-11-24T12:21:45.865Z,8.60
2017-11-24T12:24:15.810Z,8.60
2017-11-24T12:26:45.117Z,8.60
2017-11-24T12:29:14.728Z,8.60
2017-11-24T12:31:44.790Z,8.60
2017-11-24T12:34:13.958Z,8.60
2017-11-24T12:36:43.108Z,8.60
2017-11-24T12:39:13.268Z,8.60
2017-11-24T12:41:42.635Z,8.60
2017-11-24T12:44:12.637Z,8.60
2017-11-24T12:46:41.825Z,8.40
2017-11-24T12:49:10.941Z,8.40
2017-11-24T12:51:40.954Z,8.30
2017-11-24T12:54:10.116Z,8.30
2017-11-24T12:56:39.403Z,8.20
2017-11-24T12:59:08.568Z,8.10
2017-11-24T13:01:37.751Z,8.00
2017-11-24T13:04:07.668Z,8.00
2017-11-24T13:06:36.907Z,8.00
2017-11-24T13:09:06.063Z,8.00
2017-11-24T13:11:35.237Z,7.90
2017-11-24T13:14:04.519Z,7.90
2017-11-24T13:16:33.665Z,7.80
2017-11-24T13:19:02.956Z,7.80
2017-11-24T13:21:32.169Z,7.90
2017-11-24T13:24:02.258Z,7.90
2017-11-24T13:26:31.534Z,7.90
2017-11-24T13:29:00.676Z,7.90
2017-11-24T13:31:29.782Z,8.00
2017-11-24T13:33:58.921Z,8.00
2017-11-24T13:36:28.124Z,8.10
2017-11-24T13:38:57.350Z,8.20
2017-11-24T13:41:27.307Z,8.20
2017-11-24T13:43:57.009Z,8.30
2017-11-24T13:46:26.157Z,8.30
2017-11-24T13:48:55.421Z,8.40
2017-11-24T13:51:26.433Z,8.40
2017-11-24T13:53:55.628Z,8.40
2017-11-24T13:56:24.841Z,8.40
2017-11-24T13:58:54.242Z,8.30
2017-11-24T14:01:23.431Z,8.30
2017-11-24T14:03:52.646Z,8.20
2017-11-24T14:06:23.032Z,8.20
2017-11-24T14:08:52.151Z,8.20
2017-11-24T14:11:21.491Z,8.20
2017-11-24T14:13:51.393Z,8.20
2017-11-24T14:16:21.454Z,8.20
2017-11-24T14:18:51.427Z,8.20
2017-11-24T14:21:22.464Z,8.20
2017-11-24T14:23:51.769Z,8.20
2017-11-24T14:26:21.178Z,8.10
2017-11-24T14:28:51.282Z,8.00
2017-11-24T14:31:21.367Z,8.00
2017-11-24T14:33:51.448Z,8.00
2017-11-24T14:36:21.375Z,8.00
2017-11-24T14:38:50.544Z,8.00
2017-11-24T14:41:19.715Z,8.00
2017-11-24T14:43:49.716Z,8.00
2017-11-24T14:46:18.843Z,7.90
2017-11-24T14:48:47.926Z,8.00
2017-11-24T14:51:21.617Z,7.90
2017-11-24T14:53:52.469Z,8.00
2017-11-24T14:56:21.911Z,8.00
2017-11-24T14:58:52.707Z,8.00
2017-11-24T15:01:22.073Z,8.00
2017-11-24T15:03:52.314Z,8.00
2017-11-24T15:06:27.282Z,8.00
2017-11-24T15:08:57.700Z,8.00
2017-11-24T15:11:27.048Z,8.00
2017-11-24T15:13:56.391Z,8.00
2017-11-24T15:16:25.695Z,7.90
2017-11-24T15:18:55.081Z,8.00
2017-11-24T15:21:25.098Z,7.90
2017-11-24T15:23:54.669Z,7.90
2017-11-24T15:26:24.998Z,7.80
2017-11-24T15:28:54.695Z,7.80
2017-11-24T15:31:23.952Z,7.80
2017-11-24T15:33:53.372Z,7.70
2017-11-24T15:36:22.911Z,7.70
2017-11-24T15:38:52.085Z,7.60
2017-11-24T15:41:21.409Z,7.60
2017-11-24T15:43:51.060Z,7.50
2017-11-24T15:46:20.273Z,7.60
2017-11-24T15:48:50.358Z,7.60
2017-11-24T15:51:19.687Z,7.60
2017-11-24T15:53:48.849Z,7.60
2017-11-24T15:56:17.975Z,7.60
2017-11-24T15:58:47.924Z,7.60
2017-11-24T16:01:17.095Z,7.60
2017-11-24T16:03:46.210Z,7.60
2017-11-24T16:06:15.398Z,7.60
2017-11-24T16:08:45.403Z,7.50
2017-11-24T16:11:14.508Z,7.50
2017-11-24T16:13:44.108Z,7.40
2017-11-24T16:16:14.134Z,7.40
2017-11-24T16:18:44.149Z,7.40
2017-11-24T16:21:14.078Z,7.40
2017-11-24T16:23:44.317Z,7.40
2017-11-24T16:26:15.104Z,7.40
2017-11-24T16:28:44.366Z,7.40
2017-11-24T16:31:14.271Z,7.50
2017-11-24T16:33:44.394Z,7.50
2017-11-24T16:36:13.568Z,7.50
2017-11-24T16:38:43.719Z,7.50
2017-11-24T16:41:13.192Z,7.50
2017-11-24T16:43:42.370Z,7.30
2017-11-24T16:46:12.008Z,7.40
2017-11-24T16:48:41.273Z,7.30
2017-11-24T16:51:10.448Z,7.30
2017-11-24T16:53:41.516Z,7.30
2017-11-24T16:56:11.477Z,7.20
2017-11-24T16:58:40.627Z,7.10
2017-11-24T17:01:09.786Z,7.10
2017-11-24T17:03:39.853Z,7.10
2017-11-24T17:06:09.860Z,7.10
2017-11-24T17:08:39.213Z,7.10
2017-11-24T17:11:08.465Z,7.10
2017-11-24T17:13:38.146Z,7.10
2017-11-24T17:16:07.273Z,7.10
2017-11-24T17:18:37.259Z,7.10
2017-11-24T17:21:06.590Z,7.10
2017-11-24T17:23:35.826Z,7.10
2017-11-24T17:26:06.626Z,7.10
2017-11-24T17:28:35.941Z,7.10
2017-11-24T17:31:05.240Z,7.10
2017-11-24T17:33:34.431Z,7.20
2017-11-24T17:36:04.576Z,7.10
2017-11-24T17:38:34.235Z,7.00
2017-11-24T17:41:03.492Z,7.00
2017-11-24T17:43:32.689Z,7.00
2017-11-24T17:46:01.959Z,7.00
2017-11-24T17:48:31.620Z,7.00
2017-11-24T17:51:01.556Z,6.90
2017-11-24T17:53:31.508Z,6.90
2017-11-24T17:56:00.918Z,6.90
2017-11-24T17:58:30.226Z,6.90
2017-11-24T18:01:00.467Z,6.90
2017-11-24T18:03:30.965Z,6.90
2017-11-24T18:06:01.117Z,6.90
2017-11-24T18:08:30.368Z,7.00
2017-11-24T18:11:00.879Z,7.00
2017-11-24T18:13:30.973Z,6.90
2017-11-24T18:16:00.295Z,6.90
2017-11-24T18:18:30.844Z,6.90
2017-11-24T18:21:01.789Z,6.80
2017-11-24T18:23:31.326Z,6.80
2017-11-24T18:26:00.905Z,6.80
2017-11-24T18:28:30.174Z,6.70
2017-11-24T18:30:59.573Z,6.80
2017-11-24T18:33:28.806Z,6.80
2017-11-24T18:35:58.243Z,6.80
2017-11-24T18:38:28.407Z,6.80
2017-11-24T18:40:57.679Z,6.80
2017-11-24T18:43:27.046Z,6.70
2017-11-24T18:45:58.492Z,6.70
2017-11-24T18:48:27.814Z,6.70
2017-11-24T18:50:57.032Z,6.70
2017-11-24T18:53:27.102Z,6.80
2017-11-24T18:55:56.326Z,6.80
2017-11-24T18:58:25.614Z,6.90
2017-11-24T19:00:56.442Z,7.00
2017-11-24T19:03:25.773Z,7.00
2017-11-24T19:05:55.140Z,7.00
2017-11-24T19:08:24.953Z,7.00
2017-11-24T19:10:54.296Z,6.90
2017-11-24T19:13:23.496Z,6.80
2017-11-24T19:15:53.815Z,6.70
2017-11-24T19:18:23.921Z,6.70
2017-11-24T19:20:53.270Z,6.70
2017-11-24T19:23:23.589Z,6.60
2017-11-24T19:25:52.763Z,6.50
2017-11-24T19:28:23.061Z,6.50
2017-11-24T19:30:53.162Z,6.40
2017-11-24T19:33:22.476Z,6.40
2017-11-24T19:35:52.132Z,6.30
2017-11-24T19:38:22.432Z,6.30
2017-11-24T19:40:52.049Z,6.30
2017-11-24T19:43:21.745Z,6.20
2017-11-24T19:45:51.663Z,6.10
2017-11-24T19:48:23.117Z,6.10
2017-11-24T19:50:53.983Z,6.10
2017-11-24T19:53:23.238Z,6.10
2017-11-24T19:55:52.629Z,6.10
2017-11-24T19:58:22.573Z,6.10
2017-11-24T20:00:53.804Z,6.00
2017-11-24T20:03:23.007Z,6.00
2017-11-24T20:05:52.716Z,6.00
2017-11-24T20:08:22.927Z,5.90
2017-11-24T20:10:52.868Z,5.90
2017-11-24T20:13:23.808Z,5.90
2017-11-24T20:15:53.486Z,5.90
2017-11-24T20:18:24.065Z,5.90
2017-11-24T20:20:57.002Z,6.00
2017-11-24T20:23:26.273Z,5.90
2017-11-24T20:25:56.739Z,5.90
2017-11-24T20:28:26.056Z,5.90
2017-11-24T20:30:55.385Z,5.90
2017-11-24T20:33:25.460Z,5.90
2017-11-24T20:35:55.083Z,5.90
2017-11-24T20:38:24.482Z,5.80
2017-11-24T20:41:05.389Z,5.80
2017-11-24T20:43:34.614Z,5.80
2017-11-24T20:46:03.996Z,5.80
2017-11-24T20:48:33.504Z,5.80
2017-11-24T20:51:02.687Z,5.80
2017-11-24T20:53:31.882Z,5.80
2017-11-24T20:56:02.331Z,5.70
2017-11-24T20:58:31.512Z,5.70
2017-11-24T21:01:00.690Z,5.60
2017-11-24T21:03:31.828Z,5.70
2017-11-24T21:06:01.726Z,5.60
2017-11-24T21:08:31.366Z,5.60
2017-11-24T21:11:01.185Z,5.60
2017-11-24T21:13:30.604Z,5.60
2017-11-24T21:16:00.045Z,5.50
2017-11-24T21:18:29.518Z,5.50
2017-11-24T21:20:58.921Z,5.50
2017-11-24T21:23:28.166Z,5.50
2017-11-24T21:25:57.776Z,5.40
2017-11-24T21:28:27.179Z,5.40
2017-11-24T21:30:56.729Z,5.40
2017-11-24T21:33:27.054Z,5.40
2017-11-24T21:35:56.430Z,5.30
2017-11-24T21:38:25.630Z,5.30
2017-11-24T21:40:56.245Z,5.20
2017-11-24T21:43:25.586Z,5.20
2017-11-24T21:45:54.840Z,5.20
2017-11-24T21:48:24.261Z,5.30
2017-11-24T21:50:54.914Z,5.30
2017-11-24T21:53:24.401Z,5.20
2017-11-24T21:55:55.842Z,5.20
2017-11-24T21:58:26.668Z,5.20
2017-11-24T22:00:56.674Z,5.20
2017-11-24T22:03:26.832Z,5.20
2017-11-24T22:05:56.634Z,5.20
2017-11-24T22:08:27.547Z,5.20
2017-11-24T22:10:57.826Z,5.20
2017-11-24T22:13:27.133Z,5.10
2017-11-24T22:15:58.019Z,5.20
2017-11-24T22:18:28.607Z,5.10
2017-11-24T22:20:59.322Z,5.10
2017-11-24T22:23:29.091Z,5.00
2017-11-24T22:25:59.248Z,5.10
2017-11-24T22:28:28.545Z,5.10
2017-11-24T22:31:00.848Z,5.00
2017-11-24T22:33:30.529Z,5.00
2017-11-24T22:36:01.004Z,5.10
2017-11-24T22:38:30.381Z,5.10
2017-11-24T22:41:00.686Z,5.00
2017-11-24T22:43:30.778Z,5.00
2017-11-24T22:46:01.768Z,5.10
2017-11-24T22:48:31.284Z,5.00
2017-11-24T22:51:00.674Z,4.90
2017-11-24T22:53:31.746Z,4.90
2017-11-24T22:56:01.300Z,4.80
2017-11-24T22:58:31.293Z,4.80
2017-11-24T23:01:01.525Z,4.80
2017-11-24T23:03:31.096Z,4.70
2017-11-24T23:06:00.412Z,4.80
2017-11-24T23:08:29.688Z,4.70
2017-11-24T23:10:58.880Z,4.70
2017-11-24T23:13:28.106Z,4.70
2017-11-24T23:15:57.991Z,4.60
2017-11-24T23:18:28.151Z,4.60
2017-11-24T23:20:58.188Z,4.60
2017-11-24T23:23:27.538Z,4.60
2017-11-24T23:25:57.589Z,4.60
2017-11-24T23:28:27.626Z,4.60
2017-11-24T23:30:58.549Z,4.60
2017-11-24T23:33:28.730Z,4.60
2017-11-24T23:36:00.015Z,4.40
2017-11-24T23:38:29.801Z,4.40
2017-11-24T23:40:59.170Z,4.40
2017-11-24T23:43:28.654Z,4.30
2017-11-24T23:45:58.590Z,4.30
2017-11-24T23:48:27.973Z,4.30
2017-11-24T23:50:57.988Z,4.30
2017-11-24T23:53:27.883Z,4.30
2017-11-24T23:55:57.036Z,4.40
2017-11-24T23:58:27.452Z,4.30
